Time;durP1;ratioP1;P1;durP2;ratioP2;P2;SDS_P1;SDS_P2;PMS_P1;PMS_P2;Temp;Humidity;BMP_temperature;BMP_pressure;BME280_temperature;BME280_humidity;BME280_pressure;Samples;Min_cycle;Max_cycle;Signal;HPM_P1;HPM_P2
2022/12/22 10:46:10;;;;;;;;;62.00;53.00;;;;;21.45;48.67;95837.63;5048045;27;13227;-76
2022/12/22 10:48:38;;;;;;;;;67.20;56.40;;;;;21.01;50.94;95823.00;5036047;28;9584;-73
2022/12/22 10:51:31;;;;;;;;;65.00;55.60;;;;;20.66;52.33;95816.84;5046066;28;9302;-73
2022/12/22 10:54:01;;;;;;;;;69.40;57.60;;;;;20.32;53.39;95817.78;5037248;28;8926;-74
2022/12/22 10:56:31;;;;;;;;;67.00;57.00;;;;;20.08;54.45;95817.75;5030850;28;8863;-73
2022/12/22 10:59:09;;;;;;;;;65.00;55.60;;;;;19.91;55.29;95812.06;5034385;28;8857;-77
2022/12/22 11:01:39;;;;;;;;;63.60;54.40;;;;;19.73;54.88;95797.66;5032605;28;8845;-73
2022/12/22 11:04:24;;;;;;;;;68.00;58.00;;;;;19.63;56.14;95793.84;5049645;28;8865;-73
2022/12/22 11:07:08;;;;;;;;;64.00;54.20;;;;;19.55;57.14;95789.59;5039754;28;9635;-72
2022/12/22 11:09:35;;;;;;;;;68.60;58.20;;;;;19.49;58.17;95788.50;5009967;28;9456;-72
2022/12/22 11:12:07;;;;;;;;;66.80;57.00;;;;;19.44;59.20;95784.22;5034825;28;8841;-72
2022/12/22 11:14:56;;;;;;;;;62.80;53.60;;;;;19.40;60.10;95784.25;5034883;28;8836;-72
2022/12/22 11:17:29;;;;;;;;;70.00;59.00;;;;;19.38;60.54;95780.31;5029333;28;9860;-72
2022/12/22 11:20:28;;;;;;;;;70.20;59.20;;;;;19.35;60.88;95772.88;5032608;28;10105;-72
2022/12/22 11:23:36;;;;;;;;;67.20;58.00;;;;;19.33;61.42;95780.78;5038059;28;8821;-72
2022/12/22 11:26:36;;;;;;;;;64.20;55.60;;;;;19.30;61.75;95777.66;5016845;28;8903;-72
2022/12/22 11:29:39;;;;;;;;;68.40;58.00;;;;;19.28;62.28;95780.03;5037189;28;8857;-72
2022/12/22 11:32:50;;;;;;;;;68.40;58.00;;;;;19.27;62.35;95766.63;5037424;28;8855;-72
2022/12/22 11:35:26;;;;;;;;;67.40;58.00;;;;;19.26;63.20;95760.34;5033589;28;8860;-72
2022/12/22 11:38:35;;;;;;;;;68.00;58.40;;;;;19.25;63.15;95758.75;5033782;28;11173;-72
2022/12/22 11:41:24;;;;;;;;;66.40;56.20;;;;;19.25;62.72;95746.91;5035011;28;8861;-71
2022/12/22 11:44:24;;;;;;;;;63.00;54.00;;;;;19.24;63.17;95743.38;5035141;28;8922;-72
2022/12/22 11:47:02;;;;;;;;;67.60;58.00;;;;;19.23;63.12;95732.75;5036439;28;9415;-72
2022/12/22 11:50:23;;;;;;;;;61.00;52.80;;;;;19.22;64.04;95737.47;5053908;28;8869;-72
2022/12/22 11:53:40;;;;;;;;;63.60;55.00;;;;;19.22;64.30;95729.16;5052523;28;9631;-72
2022/12/22 11:56:31;;;;;;;;;66.60;56.80;;;;;19.22;63.59;95728.41;5031583;28;8963;-72
2022/12/22 11:59:19;;;;;;;;;69.00;59.00;;;;;19.22;64.04;95720.09;5038477;28;8849;-73
2022/12/22 12:02:24;;;;;;;;;61.60;53.40;;;;;19.21;64.90;95735.91;5023114;28;9549;-72
2022/12/22 12:05:21;;;;;;;;;63.00;54.00;;;;;19.21;64.35;95733.13;5025639;28;9044;-72
2022/12/22 12:08:02;;;;;;;;;61.60;52.80;;;;;19.22;64.31;95733.94;5041391;28;8871;-72
2022/12/22 12:10:45;;;;;;;;;67.00;57.60;;;;;19.21;64.41;95746.19;5032422;28;8845;-72
2022/12/22 12:13:33;;;;;;;;;63.40;55.00;;;;;19.21;64.91;95744.19;5015467;28;9336;-73
2022/12/22 12:16:28;;;;;;;;;63.60;54.40;;;;;19.21;64.47;95738.66;5024397;28;8861;-74
2022/12/22 12:19:24;;;;;;;;;68.00;58.80;;;;;19.21;64.42;95729.59;5017251;28;8964;-74
2022/12/22 12:21:56;;;;;;;;;;;;;;;19.21;65.70;95740.66;5029177;28;8865;-75
2022/12/22 12:24:23;;;;;;;;;;;;;;;19.20;64.42;95742.63;5037702;28;8235;-74
2022/12/22 12:27:11;;;;;;;;;;;;;;;19.18;63.66;95739.50;5035394;28;7548;-74
2022/12/22 12:29:47;;;;;;;;;;;;;;;19.18;63.79;95741.47;5042247;28;8087;-74
2022/12/22 12:34:00;;;;;;;;;;;;;;;19.20;62.12;95739.09;5075318;27;7541;-76
2022/12/22 12:36:35;;;;;;;;;;;;;;;19.18;61.69;95731.22;5048247;28;8256;-76
2022/12/22 12:39:02;;;;;;;;;;;;;;;19.18;63.14;95724.88;5047386;28;7538;-76
2022/12/22 12:41:47;;;;;;;;;;;;;;;19.21;61.39;95721.31;5048385;28;8216;-76
2022/12/22 12:44:45;;;;;;;;;;;;;;;19.15;58.77;95721.75;5078870;27;7545;-79
2022/12/22 12:47:40;;;;;;;;;64.00;55.00;;;;;19.39;55.83;95727.38;5059349;28;8324;-80
2022/12/22 12:50:30;;;;;;;;;63.25;54.25;;;;;19.46;56.78;95726.50;5026222;28;8944;-79
2022/12/22 12:53:34;;;;;;;;;61.75;53.00;;;;;19.65;56.84;95722.28;5041884;28;9124;-81
2022/12/22 12:56:17;;;;;;;;;62.25;53.25;;;;;19.66;56.41;95714.78;5042696;28;8852;-79
2022/12/22 12:58:45;;;;;;;;;63.40;54.60;;;;;19.86;55.71;95712.13;5038260;28;8974;-83
2022/12/22 13:01:18;;;;;;;;;59.60;51.00;;;;;19.86;55.32;95712.13;5041792;28;8929;-78
2022/12/22 13:05:11;;;;;;;;;58.20;50.20;;;;;19.90;55.30;95699.81;5074861;27;13583;-63
2022/12/22 13:08:03;;;;;;;;;58.40;51.00;;;;;19.83;54.76;95697.13;5079045;28;8872;-65
2022/12/22 13:10:32;;;;;;;;;58.40;50.60;;;;;19.72;56.90;95689.00;5059173;28;8867;-63
2022/12/22 13:12:59;;;;;;;;;72.40;61.40;;;;;19.64;56.66;95686.75;5056595;28;8849;-64
2022/12/22 13:15:31;;;;;;;;;88.00;72.00;;;;;19.56;57.46;95686.06;5083671;28;9720;-62
2022/12/22 13:18:01;;;;;;;;;169.25;154.50;;;;;19.48;58.50;95682.63;5064518;28;8842;-64
2022/12/22 13:20:36;;;;;;;;;257.00;230.67;;;;;19.41;58.83;95677.97;5058340;28;10982;-62
2022/12/22 13:23:11;;;;;;;;;327.00;291.25;;;;;19.37;59.38;95684.75;5056266;28;8850;-62
2022/12/22 13:25:50;;;;;;;;;372.25;328.25;;;;;19.33;59.80;95681.25;5062043;28;8853;-61
2022/12/22 13:28:19;;;;;;;;;397.50;353.50;;;;;19.27;60.72;95673.44;5062626;28;8942;-62
2022/12/22 13:31:21;;;;;;;;;363.75;307.25;;;;;19.26;60.48;95662.78;5064120;28;9652;-62
2022/12/22 13:34:04;;;;;;;;;372.25;320.25;;;;;19.22;60.95;95653.78;5035610;28;8850;-62
2022/12/22 13:36:31;;;;;;;;;340.75;298.00;;;;;19.22;60.73;95649.00;5041021;28;8854;-66
2022/12/22 13:39:01;;;;;;;;;304.33;265.33;;;;;19.20;60.90;95662.47;5034712;28;8958;-65
2022/12/22 13:41:28;;;;;;;;;288.00;253.00;;;;;19.17;60.83;95655.00;5031891;28;9991;-65
2022/12/22 13:44:06;;;;;;;;;272.50;238.50;;;;;19.16;61.02;95667.25;5032157;28;8998;-64
2022/12/22 13:46:35;;;;;;;;;275.00;236.00;;;;;19.14;61.04;95661.38;5035348;28;11630;-65
2022/12/22 13:49:08;;;;;;;;;226.00;201.25;;;;;19.13;61.27;95657.03;5035157;28;12355;-67
2022/12/22 13:51:36;;;;;;;;;201.25;172.50;;;;;19.11;61.36;95656.66;5032806;28;11619;-69
2022/12/22 13:54:12;;;;;;;;;218.25;192.25;;;;;19.11;61.29;95656.66;5034224;28;11114;-65
2022/12/22 13:56:48;;;;;;;;;186.25;168.00;;;;;19.10;61.59;95664.19;5032408;28;11630;-67
2022/12/22 13:59:40;;;;;;;;;184.50;165.75;;;;;19.08;61.28;95654.75;5013154;28;11583;-65
2022/12/22 14:02:07;;;;;;;;;156.25;138.50;;;;;19.13;59.81;95657.81;5029054;28;12330;-64
2022/12/22 14:04:42;;;;;;;;;136.33;120.00;;;;;19.13;60.94;95654.25;5020121;28;10757;-64
2022/12/22 14:07:32;;;;;;;;;121.25;110.50;;;;;19.13;61.88;95659.78;5040308;28;8940;-65
2022/12/22 14:14:44;;;;;;;;;110.33;98.00;;;;;19.10;62.13;95644.84;5013469;28;10700;-64
2022/12/22 14:17:20;;;;;;;;;107.00;92.67;;;;;19.10;61.99;95641.31;5021845;28;9158;-64
2022/12/22 14:19:50;;;;;;;;;99.25;75.75;;;;;19.08;61.59;95641.69;5018639;28;9006;-64
2022/12/22 14:22:21;;;;;;;;;104.25;89.75;;;;;19.09;61.80;95646.03;5015074;28;8840;-65
2022/12/22 14:24:53;;;;;;;;;95.00;75.25;;;;;19.08;61.78;95646.44;5013776;28;8879;-64
2022/12/22 14:27:33;;;;;;;;;103.75;81.25;;;;;19.07;62.06;95648.41;5016836;28;8844;-64
2022/12/22 14:30:05;;;;;;;;;94.50;75.50;;;;;19.07;62.29;95647.66;5020251;28;8851;-64
2022/12/22 14:32:44;;;;;;;;;89.25;70.25;;;;;19.07;62.31;95642.13;5004139;28;8982;-62
2022/12/22 14:35:29;;;;;;;;;91.50;71.50;;;;;19.06;62.20;95637.78;5021023;28;8902;-65
2022/12/22 14:38:24;;;;;;;;;86.25;70.25;;;;;19.07;62.42;95644.88;5016729;28;9085;-65
2022/12/22 14:40:54;;;;;;;;;87.75;71.00;;;;;19.06;62.22;95638.59;5025720;28;8833;-63
2022/12/22 14:43:30;;;;;;;;;80.00;65.75;;;;;19.06;62.79;95644.13;5020014;28;8847;-64
2022/12/22 14:46:07;;;;;;;;;76.25;63.25;;;;;19.05;62.52;95639.78;5022020;28;9360;-65
2022/12/22 14:48:43;;;;;;;;;78.50;64.00;;;;;19.06;63.01;95648.84;5027802;28;9523;-64
2022/12/22 14:51:15;;;;;;;;;75.50;63.00;;;;;19.06;62.79;95649.63;5043714;28;8828;-64
2022/12/22 14:53:47;;;;;;;;;76.75;62.25;;;;;19.05;62.91;95639.78;5041391;28;8889;-64
2022/12/22 14:56:16;;;;;;;;;75.50;62.50;;;;;19.06;63.05;95643.31;5045991;28;8854;-65
2022/12/22 14:59:09;;;;;;;;;81.60;66.20;;;;;19.06;63.06;95646.06;5041565;28;8862;-65
2022/12/22 15:01:36;;;;;;;;;79.00;66.00;;;;;19.06;62.91;95654.38;5073071;28;8862;-63
2022/12/22 15:04:23;;;;;;;;;75.00;62.40;;;;;19.06;62.87;95654.38;5041346;28;9623;-65
2022/12/22 15:07:29;;;;;;;;;75.20;63.20;;;;;19.06;62.98;95648.84;5052830;28;8873;-65
2022/12/22 15:10:17;;;;;;;;;76.20;64.20;;;;;19.05;62.74;95656.34;5047158;28;8863;-67
2022/12/22 15:12:48;;;;;;;;;71.20;60.60;;;;;19.05;62.61;95650.03;5066682;28;8935;-66
2022/12/22 15:15:58;;;;;;;;;63.25;54.00;;;;;19.05;62.66;95659.13;5046597;28;8971;-66
2022/12/22 15:18:28;;;;;;;;;69.40;58.00;;;;;19.05;62.85;95655.56;5050560;28;8887;-64
2022/12/22 15:20:56;;;;;;;;;66.00;56.40;;;;;19.04;62.83;95657.56;5049639;28;8856;-64
2022/12/22 15:23:23;;;;;;;;;72.40;59.20;;;;;19.06;62.79;95662.66;5041953;28;8849;-64
2022/12/22 15:25:50;;;;;;;;;66.25;56.25;;;;;19.06;63.38;95651.59;5038975;28;8850;-64
2022/12/22 15:28:17;;;;;;;;;69.00;58.60;;;;;19.05;63.21;95669.38;5043929;28;8874;-64
2022/12/22 15:30:50;;;;;;;;;68.40;58.40;;;;;19.04;63.22;95671.38;5045657;28;8854;-65
2022/12/22 15:33:18;;;;;;;;;66.00;56.25;;;;;19.05;63.18;95667.41;5051654;28;9195;-65
2022/12/22 15:35:45;;;;;;;;;63.75;54.50;;;;;19.06;63.39;95668.19;5048524;28;9511;-64
2022/12/22 15:38:14;;;;;;;;;68.40;58.40;;;;;19.08;64.01;95665.78;5041393;28;9009;-62
2022/12/22 15:41:33;;;;;;;;;;;;;;;;;;;;;
2022/12/22 15:44:47;;;;;;;;;61.00;53.00;;;;;19.10;63.21;95669.69;5086655;28;8879;-66
2022/12/22 15:48:28;;;;;;;;;65.00;55.60;;;;;19.09;63.52;95664.59;5046167;28;9657;-67
2022/12/22 15:51:25;;;;;;;;;65.80;55.40;;;;;19.08;63.79;95669.31;5047169;28;8850;-67
2022/12/22 15:57:50;;;;;;;;;62.20;53.40;;;;;19.08;64.07;95672.09;4979838;28;8870;-65
2022/12/22 16:00:18;;;;;;;;;69.40;58.40;;;;;19.09;64.08;95672.88;4990072;28;8888;-63
2022/12/22 16:02:45;;;;;;;;;60.40;52.40;;;;;19.12;62.76;95675.59;4984955;28;9122;-64
2022/12/22 16:05:13;;;;;;;;;59.40;51.40;;;;;19.12;61.06;95677.56;4988234;28;9329;-62
2022/12/22 16:07:42;;;;;;;;;60.00;52.20;;;;;19.12;60.69;95683.09;4987761;28;8887;-62
2022/12/22 16:10:27;;;;;;;;;66.75;57.75;;;;;19.10;60.15;95693.81;4984731;28;8854;-62
2022/12/22 16:12:59;;;;;;;;;59.00;52.00;;;;;19.09;59.85;95700.53;4990969;28;8830;-62
2022/12/22 16:15:29;;;;;;;;;63.60;54.60;;;;;19.07;59.45;95700.91;4992831;28;8861;-62
2022/12/22 16:17:57;;;;;;;;;57.80;50.80;;;;;19.08;59.09;95704.47;4989439;28;8855;-62
2022/12/22 16:20:27;;;;;;;;;60.20;52.80;;;;;19.08;59.29;95705.25;4990513;28;8836;-62
2022/12/22 16:23:02;;;;;;;;;61.20;51.80;;;;;19.08;59.13;95705.25;4963175;28;8876;-62
2022/12/22 16:25:36;;;;;;;;;63.25;54.75;;;;;19.07;59.69;95706.44;4983515;28;9006;-61
2022/12/22 16:28:05;;;;;;;;;61.50;52.50;;;;;19.09;59.06;95706.06;4988404;28;8879;-61
2022/12/22 16:30:33;;;;;;;;;63.25;54.00;;;;;19.08;59.15;95704.47;4994009;28;8843;-61
2022/12/22 16:33:00;;;;;;;;;63.60;55.20;;;;;19.12;58.69;95717.06;5032601;28;9013;-62
2022/12/22 16:35:29;;;;;;;;;57.80;50.80;;;;;19.14;58.29;95709.16;5035451;28;8878;-62
2022/12/22 16:38:00;;;;;;;;;59.80;52.20;;;;;19.19;60.71;95720.94;5038696;28;8866;-65
2022/12/22 16:40:30;;;;;;;;;60.00;52.80;;;;;19.21;58.08;95713.00;5055308;28;8861;-65
2022/12/22 16:43:29;;;;;;;;;66.25;57.00;;;;;19.23;57.33;95721.69;5056253;28;8938;-65
2022/12/22 16:46:17;;;;;;;;;59.50;51.25;;;;;19.33;60.88;95723.50;5044123;28;8843;-61
2022/12/22 16:48:48;;;;;;;;;64.80;55.80;;;;;19.39;60.54;95730.16;5048239;28;8864;-63
2022/12/22 16:51:32;;;;;;;;;59.60;52.20;;;;;19.41;57.93;95729.72;5051739;28;8843;-64
2022/12/22 16:54:00;;;;;;;;;70.60;60.40;;;;;19.43;58.16;95730.88;5051281;28;8846;-65
2022/12/22 16:56:29;;;;;;;;;60.20;52.00;;;;;19.44;57.87;95737.22;5050988;28;8855;-63
2022/12/22 16:58:56;;;;;;;;;59.40;52.40;;;;;19.40;58.45;95733.69;5050733;28;8884;-65
2022/12/22 17:01:26;;;;;;;;;58.80;51.60;;;;;19.37;59.46;95738.06;5037854;28;8854;-66
2022/12/22 17:04:01;;;;;;;;;59.60;52.60;;;;;19.35;59.49;95745.22;5046474;28;8960;-65
2022/12/22 17:06:32;;;;;;;;;58.20;51.20;;;;;19.32;59.95;95741.28;5048208;28;8857;-65
2022/12/22 17:09:02;;;;;;;;;61.25;53.25;;;;;19.32;60.52;95740.50;5047162;28;8884;-65
2022/12/22 17:11:31;;;;;;;;;58.60;50.80;;;;;19.29;60.77;95739.38;5042269;28;8927;-66
2022/12/22 17:14:13;;;;;;;;;63.50;54.25;;;;;19.28;60.98;95732.25;5055970;28;8886;-66
2022/12/22 17:16:40;;;;;;;;;60.00;51.25;;;;;19.27;61.11;95733.47;5058859;28;8894;-64
2022/12/22 17:19:12;;;;;;;;;57.20;52.00;;;;;19.26;61.38;95729.94;5048927;28;8882;-66
2022/12/22 17:21:41;;;;;;;;;58.40;51.40;;;;;19.27;61.83;95733.47;5046377;28;8958;-64
2022/12/22 17:24:13;;;;;;;;;59.60;51.00;;;;;19.27;61.95;95734.25;5044211;28;8882;-63
2022/12/22 17:26:41;;;;;;;;;61.40;53.40;;;;;19.26;62.06;95727.16;5045912;28;8848;-63
2022/12/22 17:29:15;;;;;;;;;58.80;51.00;;;;;19.25;62.25;95733.88;5048970;28;9028;-65
2022/12/22 17:31:42;;;;;;;;;63.20;54.60;;;;;19.24;62.39;95735.06;5034872;28;9583;-64
2022/12/22 17:34:15;;;;;;;;;60.00;52.60;;;;;19.24;62.81;95726.78;5045680;28;8862;-63
2022/12/22 17:36:45;;;;;;;;;62.40;54.20;;;;;19.24;62.82;95731.50;5052056;28;8913;-64
2022/12/22 17:39:19;;;;;;;;;58.60;51.40;;;;;19.24;62.94;95735.06;5050771;28;8854;-64
2022/12/22 17:41:46;;;;;;;;;63.00;54.60;;;;;19.24;63.05;95734.28;5045568;28;8866;-63
2022/12/22 17:44:23;;;;;;;;;62.80;52.60;;;;;19.24;63.13;95740.59;5045703;28;8958;-65
2022/12/22 17:46:50;;;;;;;;;63.40;54.80;;;;;19.23;63.18;95738.25;5046495;28;8944;-65
2022/12/22 17:49:20;;;;;;;;;64.80;56.00;;;;;19.23;63.14;95739.03;5041666;28;8845;-66
2022/12/22 17:51:49;;;;;;;;;62.60;54.80;;;;;19.24;63.21;95742.56;5056883;28;9044;-63
2022/12/22 17:54:22;;;;;;;;;59.80;52.00;;;;;19.24;63.22;95739.81;5053153;28;8882;-66
2022/12/22 17:56:50;;;;;;;;;57.40;52.00;;;;;19.23;63.27;95741.81;5038160;28;8846;-64
2022/12/22 17:59:23;;;;;;;;;63.00;54.40;;;;;19.24;63.50;95748.09;5066995;28;8854;-67
2022/12/22 18:01:50;;;;;;;;;58.20;51.20;;;;;19.23;63.32;95741.03;5049108;28;9701;-67
2022/12/22 18:04:22;;;;;;;;;63.20;53.40;;;;;19.26;62.98;95738.22;5062662;28;8864;-64
2022/12/22 18:06:53;;;;;;;;;59.20;52.80;;;;;19.29;60.52;95737.38;5052219;28;8877;-66
2022/12/22 18:09:23;;;;;;;;;62.20;53.60;;;;;19.30;59.96;95738.94;5037502;28;8864;-67
2022/12/22 18:11:51;;;;;;;;;62.60;54.20;;;;;19.32;60.10;95740.50;5056905;28;8870;-63
2022/12/22 18:14:21;;;;;;;;;59.60;50.40;;;;;19.32;60.44;95735.75;5050585;28;8870;-65
2022/12/22 18:16:50;;;;;;;;;60.60;53.20;;;;;19.31;61.00;95745.28;5047552;28;9087;-64
2022/12/22 18:19:17;;;;;;;;;59.40;52.00;;;;;19.30;61.44;95746.47;5054025;28;8826;-65
2022/12/22 18:21:50;;;;;;;;;64.60;54.60;;;;;19.28;61.92;95744.09;5047914;28;8983;-65
2022/12/22 18:24:18;;;;;;;;;60.00;51.60;;;;;19.29;62.22;95753.19;5047751;28;8877;-63
2022/12/22 18:26:45;;;;;;;;;61.60;53.80;;;;;19.28;62.40;95752.38;5043781;28;8886;-62
2022/12/22 18:29:16;;;;;;;;;58.00;51.60;;;;;19.28;62.76;95752.38;5051564;28;8840;-61
2022/12/22 18:31:43;;;;;;;;;60.80;53.60;;;;;19.28;62.69;95748.84;5044527;28;8854;-62
2022/12/22 18:34:11;;;;;;;;;65.20;56.00;;;;;19.28;62.83;95744.09;5049079;28;8915;-63
2022/12/22 18:36:41;;;;;;;;;63.40;55.00;;;;;19.27;63.11;95742.56;5048519;28;8870;-62
2022/12/22 18:39:15;;;;;;;;;66.20;57.40;;;;;19.27;63.22;95750.84;5045991;28;8884;-63
2022/12/22 18:41:43;;;;;;;;;62.60;53.60;;;;;19.27;63.54;95748.09;5043371;28;8872;-64
2022/12/22 18:44:17;;;;;;;;;66.00;56.80;;;;;19.27;63.85;95750.84;5045974;28;8853;-64
2022/12/22 18:46:45;;;;;;;;;59.20;51.60;;;;;19.26;63.87;95746.50;5041918;28;8850;-64
2022/12/22 18:49:12;;;;;;;;;65.20;56.20;;;;;19.27;63.90;95742.56;5041753;28;8850;-63
2022/12/22 18:51:42;;;;;;;;;63.00;54.00;;;;;19.27;64.16;95744.53;5040390;28;8869;-64
2022/12/22 18:54:36;;;;;;;;;63.00;54.60;;;;;19.26;64.15;95752.03;5043201;28;8931;-63
2022/12/22 18:57:12;;;;;;;;;67.80;57.80;;;;;19.26;64.35;95748.47;5035812;28;8849;-62
2022/12/22 18:59:39;;;;;;;;;66.00;56.80;;;;;19.27;64.34;95752.81;5035390;28;8990;-62
2022/12/22 19:02:17;;;;;;;;;65.40;56.40;;;;;19.26;64.50;95754.00;5038819;28;8846;-62
2022/12/22 19:04:45;;;;;;;;;69.80;59.60;;;;;19.26;64.66;95754.81;5032496;28;8830;-64
2022/12/22 19:07:17;;;;;;;;;64.60;55.40;;;;;19.26;64.61;95754.00;5037510;28;8845;-63
2022/12/22 19:09:45;;;;;;;;;65.00;55.80;;;;;19.26;64.77;95757.56;5040805;28;8972;-64
2022/12/22 19:12:14;;;;;;;;;64.80;56.00;;;;;19.27;64.75;95755.56;5038693;28;8846;-62
2022/12/22 19:14:43;;;;;;;;;67.20;57.40;;;;;19.26;64.92;95754.00;5031759;28;9181;-63
2022/12/22 19:17:15;;;;;;;;;68.60;59.00;;;;;19.26;65.07;95757.56;5042317;28;9228;-64
2022/12/22 19:19:42;;;;;;;;;62.20;54.00;;;;;19.29;64.60;95753.97;5047892;28;8865;-63
2022/12/22 19:22:13;;;;;;;;;65.60;56.40;;;;;19.33;63.50;95761.44;5042421;28;8842;-63
2022/12/22 19:24:43;;;;;;;;;75.20;63.20;;;;;19.32;63.88;95760.63;5037698;28;8833;-63
2022/12/22 19:27:18;;;;;;;;;66.80;57.80;;;;;19.32;63.74;95763.41;5043529;28;8954;-63
2022/12/22 19:29:45;;;;;;;;;65.20;55.80;;;;;19.31;63.52;95756.31;5051868;28;8978;-63
2022/12/22 19:32:29;;;;;;;;;66.20;57.00;;;;;19.30;63.44;95750.00;5047957;28;8881;-63
2022/12/22 19:34:56;;;;;;;;;61.60;52.60;;;;;19.32;63.65;95751.56;5044672;28;8856;-60
2022/12/22 19:37:23;;;;;;;;;65.00;56.20;;;;;19.34;61.16;95749.19;5045666;28;9636;-61
2022/12/22 19:39:50;;;;;;;;;66.80;57.60;;;;;19.36;58.35;95746.78;5056018;28;8847;-61
2022/12/22 19:42:20;;;;;;;;;66.60;57.60;;;;;19.48;59.98;95748.22;5051217;28;8961;-62
2022/12/22 19:44:47;;;;;;;;;62.20;53.80;;;;;19.43;59.89;95750.22;5057488;28;8867;-64
2022/12/22 19:47:18;;;;;;;;;62.40;54.40;;;;;19.43;59.86;95752.22;5043420;28;9133;-64
2022/12/22 19:49:47;;;;;;;;;65.80;56.80;;;;;19.42;59.56;95753.41;5038030;28;8843;-63
2022/12/22 19:52:14;;;;;;;;;67.80;57.80;;;;;19.41;59.68;95765.69;5054059;28;9775;-64
2022/12/22 19:54:40;;;;;;;;;64.60;55.20;;;;;19.40;59.67;95753.84;5054149;28;9645;-62
2022/12/22 19:57:15;;;;;;;;;66.40;57.20;;;;;19.40;59.39;95758.56;5053179;28;8982;-63
2022/12/22 19:59:46;;;;;;;;;65.40;56.40;;;;;19.41;59.16;95751.84;5049020;28;8844;-63
2022/12/22 20:02:27;;;;;;;;;65.20;55.20;;;;;19.46;58.46;95760.47;5046353;28;9671;-63
2022/12/22 20:04:56;;;;;;;;;63.20;54.40;;;;;19.48;58.86;95757.28;5040263;28;9701;-62
2022/12/22 20:07:25;;;;;;;;;67.20;57.20;;;;;19.50;59.09;95752.13;5049867;28;8845;-61
2022/12/22 20:09:52;;;;;;;;;65.60;56.40;;;;;19.53;59.16;95748.53;5059202;28;8874;-60
2022/12/22 20:12:28;;;;;;;;;61.40;53.40;;;;;19.57;59.32;95745.72;5042903;28;8892;-60
2022/12/22 20:14:56;;;;;;;;;61.40;53.40;;;;;19.59;59.24;95740.53;5047400;28;8836;-61
2022/12/22 20:17:23;;;;;;;;;61.00;52.80;;;;;19.61;59.41;95735.38;5059336;28;8857;-62
2022/12/22 20:19:50;;;;;;;;;64.40;55.00;;;;;19.60;59.43;95734.59;5046460;28;9586;-62
2022/12/22 20:22:19;;;;;;;;;59.60;52.60;;;;;19.65;59.21;95740.84;5041766;28;9157;-61
2022/12/22 20:24:48;;;;;;;;;63.00;54.40;;;;;19.65;59.52;95735.31;5058223;28;8956;-62
2022/12/22 20:27:34;;;;;;;;;65.40;55.60;;;;;19.65;59.44;95732.56;5041328;28;8857;-61
2022/12/22 20:30:01;;;;;;;;;61.00;53.00;;;;;19.67;59.44;95725.41;5050754;28;8860;-62
2022/12/22 20:32:27;;;;;;;;;62.20;53.60;;;;;19.66;59.68;95739.66;5030962;28;8833;-61
2022/12/22 20:34:55;;;;;;;;;66.40;56.60;;;;;19.63;59.89;95735.75;5034881;28;8846;-61
2022/12/22 20:37:21;;;;;;;;;66.80;57.40;;;;;19.64;59.55;95731.00;5035755;28;9217;-61
2022/12/22 20:39:48;;;;;;;;;64.00;55.20;;;;;19.67;59.73;95732.94;5039353;28;8855;-61
2022/12/22 20:42:22;;;;;;;;;64.80;54.80;;;;;19.67;60.66;95732.94;5033908;28;8899;-60
2022/12/22 20:44:50;;;;;;;;;68.40;58.40;;;;;19.66;60.90;95725.84;5037260;28;8881;-61
2022/12/22 20:47:29;;;;;;;;;64.20;55.40;;;;;19.63;60.80;95733.00;5034704;28;8987;-60
2022/12/22 20:49:56;;;;;;;;;63.40;54.60;;;;;19.61;60.72;95730.66;5038911;28;8905;-59
2022/12/22 20:52:23;;;;;;;;;69.80;58.20;;;;;19.59;60.76;95727.50;5037121;28;8834;-60
2022/12/22 20:54:49;;;;;;;;;71.20;61.00;;;;;19.59;60.98;95738.56;5042909;28;8846;-62
2022/12/22 20:57:17;;;;;;;;;69.40;59.80;;;;;19.57;61.31;95732.66;5040942;28;8835;-61
2022/12/22 20:59:47;;;;;;;;;68.60;59.00;;;;;19.57;61.56;95737.44;5037905;28;8952;-62
2022/12/22 21:02:23;;;;;;;;;65.20;56.20;;;;;19.55;62.06;95739.81;5039465;28;8881;-60
2022/12/22 21:04:50;;;;;;;;;68.80;59.40;;;;;19.53;62.57;95743.00;5035105;28;8877;-61
2022/12/22 21:07:17;;;;;;;;;66.60;56.20;;;;;19.53;62.54;95750.50;5044434;28;9591;-61
2022/12/22 21:09:44;;;;;;;;;65.40;56.00;;;;;19.52;63.14;95746.97;5044555;28;8842;-61
2022/12/22 21:12:11;;;;;;;;;57.40;51.60;;;;;19.50;63.29;95746.59;5046380;28;8861;-60
2022/12/22 21:14:38;;;;;;;;;62.40;54.00;;;;;19.50;63.56;95749.34;5044847;28;9688;-60
2022/12/22 21:17:14;;;;;;;;;67.20;56.40;;;;;19.50;63.57;95746.59;5036943;28;8951;-60
2022/12/22 21:19:41;;;;;;;;;66.00;56.60;;;;;19.49;64.02;95752.56;5038319;28;8841;-60
2022/12/22 21:22:08;;;;;;;;;65.00;56.00;;;;;19.49;64.11;95756.09;5039081;28;8863;-60
2022/12/22 21:24:35;;;;;;;;;69.00;58.00;;;;;19.50;64.46;95746.59;5041912;28;9284;-64
2022/12/22 21:27:02;;;;;;;;;62.80;54.40;;;;;19.54;64.43;95758.38;5047429;28;8846;-59
2022/12/22 21:29:30;;;;;;;;;67.40;57.60;;;;;19.53;63.78;95756.03;5075854;28;8838;-59
2022/12/22 21:31:57;;;;;;;;;79.00;66.40;;;;;19.52;63.29;95751.69;5045700;28;8851;-59
2022/12/22 21:34:23;;;;;;;;;67.00;56.60;;;;;19.51;62.81;95758.44;5049838;28;8819;-59
2022/12/22 21:36:58;;;;;;;;;66.60;57.40;;;;;19.49;62.15;95758.09;5051944;28;8863;-58
2022/12/22 21:39:40;;;;;;;;;68.00;58.20;;;;;19.47;62.03;95758.47;5047677;28;8833;-59
2022/12/22 21:42:17;;;;;;;;;64.00;55.60;;;;;19.47;60.74;95750.19;5048762;28;8820;-57
2022/12/22 21:44:44;;;;;;;;;67.20;58.00;;;;;19.47;59.72;95739.13;5049804;28;8930;-58
2022/12/22 21:47:13;;;;;;;;;71.40;61.20;;;;;19.51;61.33;95748.16;5049789;28;8856;-59
2022/12/22 21:49:40;;;;;;;;;63.00;54.40;;;;;19.50;61.89;95746.59;5046234;28;8871;-60
2022/12/22 21:52:07;;;;;;;;;66.20;57.00;;;;;19.49;62.76;95747.78;5060042;28;8816;-59
2022/12/22 21:54:33;;;;;;;;;62.60;54.60;;;;;19.49;62.96;95742.25;5064391;28;8968;-60
2022/12/22 21:57:00;;;;;;;;;67.20;58.00;;;;;19.48;63.32;95734.38;5058773;28;8851;-60
2022/12/22 21:59:27;;;;;;;;;59.80;52.00;;;;;19.46;63.53;95732.81;5046325;28;8857;-60
2022/12/22 22:01:55;;;;;;;;;58.60;52.00;;;;;19.45;63.76;95739.53;5049515;28;8885;-60
2022/12/22 22:04:23;;;;;;;;;60.60;52.00;;;;;19.46;64.19;95729.25;5041772;28;8912;-59
2022/12/22 22:06:50;;;;;;;;;60.00;52.00;;;;;19.45;64.24;95739.53;5047990;28;8849;-60
2022/12/22 22:09:16;;;;;;;;;61.80;54.20;;;;;19.43;64.40;95736.41;5047699;28;8822;-60
2022/12/22 22:14:29;;;;;;;;;61.60;54.00;;;;;19.43;64.72;95741.16;5055201;28;8971;-60
2022/12/22 22:16:56;;;;;;;;;64.20;54.80;;;;;19.42;64.83;95734.84;5041600;28;8924;-61
2022/12/22 22:19:23;;;;;;;;;59.00;52.00;;;;;19.42;64.99;95739.59;5049766;28;8839;-60
2022/12/22 22:21:49;;;;;;;;;60.60;52.00;;;;;19.42;64.95;95731.31;5051761;28;8889;-60
2022/12/22 22:24:16;;;;;;;;;61.40;53.40;;;;;19.42;65.31;95731.31;5047225;28;8825;-61
2022/12/22 22:26:44;;;;;;;;;59.40;51.60;;;;;19.51;64.21;95730.78;5044228;28;8886;-61
2022/12/22 22:29:11;;;;;;;;;60.40;52.00;;;;;19.48;63.70;95731.63;5046243;28;8928;-61
2022/12/22 22:31:39;;;;;;;;;57.60;52.00;;;;;19.47;63.33;95733.59;5051369;28;8830;-60
2022/12/22 22:34:06;;;;;;;;;61.20;52.60;;;;;19.46;63.48;95734.78;5037459;28;8841;-60
2022/12/22 22:36:33;;;;;;;;;63.20;53.00;;;;;19.44;63.03;95737.97;5039556;28;8881;-61
2022/12/22 22:39:00;;;;;;;;;64.80;56.00;;;;;19.42;62.62;95731.31;5041257;28;8836;-59
2022/12/22 22:41:29;;;;;;;;;63.80;54.80;;;;;19.42;62.50;95725.78;5042326;28;8908;-59
2022/12/22 22:43:59;;;;;;;;;65.80;56.00;;;;;19.43;62.30;95724.56;5042542;28;10729;-59
2022/12/22 22:46:26;;;;;;;;;72.00;61.00;;;;;19.45;62.34;95727.69;5039103;28;8845;-57
2022/12/22 22:48:54;;;;;;;;;65.40;56.20;;;;;19.45;62.12;95720.19;5040936;28;8896;-59
2022/12/22 22:51:21;;;;;;;;;61.80;53.60;;;;;19.45;61.77;95713.84;5042788;28;8848;-60
2022/12/22 22:53:48;;;;;;;;;64.60;55.60;;;;;19.43;61.80;95719.03;5047590;28;8852;-60
2022/12/22 22:56:15;;;;;;;;;65.80;56.40;;;;;19.42;61.66;95711.94;5035786;28;8888;-64
2022/12/22 22:58:42;;;;;;;;;65.80;56.40;;;;;19.43;61.43;95708.75;5039892;28;8859;-59
2022/12/22 23:01:10;;;;;;;;;61.40;52.20;;;;;19.46;61.39;95707.94;5043641;28;8860;-59